sensor_id;sensor_type;location;lat;lon;timestamp;P1;durP1;ratioP1;P2;durP2;ratioP2
16159;SDS011;8185;57.818;15.224;2023-03-01T00:01:00;0.90;;;0.87;;
16159;SDS011;8185;57.818;15.224;2023-03-01T00:03:28;1.13;;;0.90;;
16159;SDS011;8185;57.818;15.224;2023-03-01T00:05:55;1.20;;;1.00;;
16159;SDS011;8185;57.818;15.224;2023-03-01T00:08:22;1.00;;;0.80;;
16159;SDS011;8185;57.818;15.224;2023-03-01T00:10:59;1.23;;;1.00;;
16159;SDS011;8185;57.818;15.224;2023-03-01T00:13:28;1.23;;;0.90;;
16159;SDS011;8185;57.818;15.224;2023-03-01T00:15:55;1.30;;;1.00;;
16159;SDS011;8185;57.818;15.224;2023-03-01T00:18:23;1.10;;;1.00;;
16159;SDS011;8185;57.818;15.224;2023-03-01T00:20:51;1.47;;;1.13;;
16159;SDS011;8185;57.818;15.224;2023-03-01T00:23:18;3.80;;;1.17;;
16159;SDS011;8185;57.818;15.224;2023-03-01T00:25:46;1.43;;;0.90;;
16159;SDS011;8185;57.818;15.224;2023-03-01T00:28:14;1.30;;;1.00;;
16159;SDS011;8185;57.818;15.224;2023-03-01T00:30:43;2.23;;;1.13;;
16159;SDS011;8185;57.818;15.224;2023-03-01T00:33:10;1.30;;;0.90;;
16159;SDS011;8185;57.818;15.224;2023-03-01T00:35:38;1.60;;;1.00;;
16159;SDS011;8185;57.818;15.224;2023-03-01T00:38:05;1.23;;;1.10;;
16159;SDS011;8185;57.818;15.224;2023-03-01T00:40:33;2.60;;;1.07;;
16159;SDS011;8185;57.818;15.224;2023-03-01T00:43:02;1.97;;;1.60;;
16159;SDS011;8185;57.818;15.224;2023-03-01T00:45:31;3.03;;;2.33;;
16159;SDS011;8185;57.818;15.224;2023-03-01T00:48:01;2.17;;;1.33;;
16159;SDS011;8185;57.818;15.224;2023-03-01T00:50:28;2.40;;;1.93;;
16159;SDS011;8185;57.818;15.224;2023-03-01T00:52:55;3.43;;;2.93;;
16159;SDS011;8185;57.818;15.224;2023-03-01T00:55:23;3.77;;;2.90;;
16159;SDS011;8185;57.818;15.224;2023-03-01T00:57:50;3.83;;;2.30;;
16159;SDS011;8185;57.818;15.224;2023-03-01T01:00:18;1.80;;;1.03;;
16159;SDS011;8185;57.818;15.224;2023-03-01T01:02:46;1.10;;;1.00;;
16159;SDS011;8185;57.818;15.224;2023-03-01T01:05:14;1.23;;;1.13;;
16159;SDS011;8185;57.818;15.224;2023-03-01T01:07:46;1.40;;;1.00;;
16159;SDS011;8185;57.818;15.224;2023-03-01T01:10:14;2.10;;;0.80;;
16159;SDS011;8185;57.818;15.224;2023-03-01T01:12:43;0.93;;;0.90;;
16159;SDS011;8185;57.818;15.224;2023-03-01T01:15:10;2.40;;;0.97;;
16159;SDS011;8185;57.818;15.224;2023-03-01T01:17:39;1.57;;;0.90;;
16159;SDS011;8185;57.818;15.224;2023-03-01T01:20:07;1.03;;;0.90;;
16159;SDS011;8185;57.818;15.224;2023-03-01T01:22:36;2.97;;;1.00;;
16159;SDS011;8185;57.818;15.224;2023-03-01T01:25:04;1.07;;;0.80;;
16159;SDS011;8185;57.818;15.224;2023-03-01T01:27:31;1.20;;;0.90;;
16159;SDS011;8185;57.818;15.224;2023-03-01T01:29:59;1.20;;;1.10;;
16159;SDS011;8185;57.818;15.224;2023-03-01T01:32:26;1.67;;;0.73;;
16159;SDS011;8185;57.818;15.224;2023-03-01T01:34:53;1.20;;;0.80;;
16159;SDS011;8185;57.818;15.224;2023-03-01T01:37:21;1.47;;;0.87;;
16159;SDS011;8185;57.818;15.224;2023-03-01T01:39:57;1.97;;;1.10;;
16159;SDS011;8185;57.818;15.224;2023-03-01T01:42:25;1.83;;;1.03;;
16159;SDS011;8185;57.818;15.224;2023-03-01T01:47:57;1.80;;;0.93;;
16159;SDS011;8185;57.818;15.224;2023-03-01T01:50:27;1.30;;;1.00;;
16159;SDS011;8185;57.818;15.224;2023-03-01T01:53:04;3.03;;;0.90;;
16159;SDS011;8185;57.818;15.224;2023-03-01T01:55:34;1.20;;;1.00;;
16159;SDS011;8185;57.818;15.224;2023-03-01T01:58:04;0.90;;;0.80;;
16159;SDS011;8185;57.818;15.224;2023-03-01T02:00:35;0.90;;;0.80;;
16159;SDS011;8185;57.818;15.224;2023-03-01T02:03:06;3.13;;;0.70;;
16159;SDS011;8185;57.818;15.224;2023-03-01T02:05:38;0.90;;;0.80;;
16159;SDS011;8185;57.818;15.224;2023-03-01T02:08:11;1.47;;;0.97;;
16159;SDS011;8185;57.818;15.224;2023-03-01T02:10:42;2.20;;;0.87;;
16159;SDS011;8185;57.818;15.224;2023-03-01T02:13:10;2.27;;;1.07;;
16159;SDS011;8185;57.818;15.224;2023-03-01T02:15:38;0.80;;;0.80;;
16159;SDS011;8185;57.818;15.224;2023-03-01T02:18:09;1.17;;;0.90;;
16159;SDS011;8185;57.818;15.224;2023-03-01T02:20:39;0.80;;;0.80;;
16159;SDS011;8185;57.818;15.224;2023-03-01T02:23:17;1.37;;;1.10;;
16159;SDS011;8185;57.818;15.224;2023-03-01T02:25:47;1.10;;;0.90;;
16159;SDS011;8185;57.818;15.224;2023-03-01T02:28:24;1.00;;;0.90;;
16159;SDS011;8185;57.818;15.224;2023-03-01T02:30:53;2.53;;;1.23;;
16159;SDS011;8185;57.818;15.224;2023-03-01T02:33:40;1.60;;;1.10;;
16159;SDS011;8185;57.818;15.224;2023-03-01T02:36:10;1.47;;;0.90;;
16159;SDS011;8185;57.818;15.224;2023-03-01T02:38:42;1.43;;;1.33;;
16159;SDS011;8185;57.818;15.224;2023-03-01T02:41:10;1.20;;;1.10;;
16159;SDS011;8185;57.818;15.224;2023-03-01T02:43:42;2.10;;;0.90;;
16159;SDS011;8185;57.818;15.224;2023-03-01T02:46:13;1.40;;;1.10;;
16159;SDS011;8185;57.818;15.224;2023-03-01T02:48:43;1.60;;;1.10;;
16159;SDS011;8185;57.818;15.224;2023-03-01T02:51:21;1.17;;;1.07;;
16159;SDS011;8185;57.818;15.224;2023-03-01T02:54:05;2.17;;;1.10;;
16159;SDS011;8185;57.818;15.224;2023-03-01T02:56:38;1.93;;;1.00;;
16159;SDS011;8185;57.818;15.224;2023-03-01T02:59:08;1.53;;;1.20;;
16159;SDS011;8185;57.818;15.224;2023-03-01T03:01:36;1.13;;;1.03;;
16159;SDS011;8185;57.818;15.224;2023-03-01T03:04:04;1.53;;;1.10;;
16159;SDS011;8185;57.818;15.224;2023-03-01T03:06:32;3.50;;;1.27;;
16159;SDS011;8185;57.818;15.224;2023-03-01T03:09:00;2.47;;;1.10;;
16159;SDS011;8185;57.818;15.224;2023-03-01T03:11:27;1.90;;;1.50;;
16159;SDS011;8185;57.818;15.224;2023-03-01T03:13:55;1.53;;;1.10;;
16159;SDS011;8185;57.818;15.224;2023-03-01T03:16:24;2.83;;;1.30;;
16159;SDS011;8185;57.818;15.224;2023-03-01T03:18:51;2.37;;;1.00;;
16159;SDS011;8185;57.818;15.224;2023-03-01T03:21:18;2.90;;;1.40;;
16159;SDS011;8185;57.818;15.224;2023-03-01T03:23:45;2.53;;;1.43;;
16159;SDS011;8185;57.818;15.224;2023-03-01T03:26:13;1.60;;;1.27;;
16159;SDS011;8185;57.818;15.224;2023-03-01T03:28:40;1.73;;;1.17;;
16159;SDS011;8185;57.818;15.224;2023-03-01T03:31:07;1.50;;;1.40;;
16159;SDS011;8185;57.818;15.224;2023-03-01T03:33:36;1.30;;;1.07;;
16159;SDS011;8185;57.818;15.224;2023-03-01T03:36:04;1.77;;;1.50;;
16159;SDS011;8185;57.818;15.224;2023-03-01T03:38:31;2.73;;;1.10;;
16159;SDS011;8185;57.818;15.224;2023-03-01T03:41:00;2.00;;;1.70;;
16159;SDS011;8185;57.818;15.224;2023-03-01T03:43:29;2.30;;;1.30;;
16159;SDS011;8185;57.818;15.224;2023-03-01T03:45:57;2.10;;;1.50;;
16159;SDS011;8185;57.818;15.224;2023-03-01T03:48:25;1.60;;;1.50;;
16159;SDS011;8185;57.818;15.224;2023-03-01T03:50:55;2.13;;;1.20;;
16159;SDS011;8185;57.818;15.224;2023-03-01T03:53:23;1.57;;;1.13;;
16159;SDS011;8185;57.818;15.224;2023-03-01T03:55:52;1.33;;;1.13;;
16159;SDS011;8185;57.818;15.224;2023-03-01T03:58:21;1.23;;;1.13;;
16159;SDS011;8185;57.818;15.224;2023-03-01T04:00:51;2.53;;;1.20;;
16159;SDS011;8185;57.818;15.224;2023-03-01T04:03:20;1.37;;;1.27;;
16159;SDS011;8185;57.818;15.224;2023-03-01T04:05:49;3.00;;;1.47;;
16159;SDS011;8185;57.818;15.224;2023-03-01T04:08:18;2.10;;;1.53;;
16159;SDS011;8185;57.818;15.224;2023-03-01T04:10:47;2.30;;;1.70;;
16159;SDS011;8185;57.818;15.224;2023-03-01T04:13:15;2.90;;;1.17;;
16159;SDS011;8185;57.818;15.224;2023-03-01T04:15:44;2.77;;;1.50;;
16159;SDS011;8185;57.818;15.224;2023-03-01T04:18:12;2.37;;;1.37;;
16159;SDS011;8185;57.818;15.224;2023-03-01T04:20:41;1.50;;;1.40;;
16159;SDS011;8185;57.818;15.224;2023-03-01T04:23:11;2.10;;;1.50;;
16159;SDS011;8185;57.818;15.224;2023-03-01T04:25:45;1.43;;;1.20;;
16159;SDS011;8185;57.818;15.224;2023-03-01T04:28:19;4.00;;;1.50;;
16159;SDS011;8185;57.818;15.224;2023-03-01T04:30:46;1.80;;;1.40;;
16159;SDS011;8185;57.818;15.224;2023-03-01T04:33:13;1.90;;;1.50;;
16159;SDS011;8185;57.818;15.224;2023-03-01T04:35:41;3.07;;;1.50;;
16159;SDS011;8185;57.818;15.224;2023-03-01T04:38:08;3.23;;;1.77;;
16159;SDS011;8185;57.818;15.224;2023-03-01T04:40:35;2.17;;;1.40;;
16159;SDS011;8185;57.818;15.224;2023-03-01T04:43:04;3.20;;;2.23;;
16159;SDS011;8185;57.818;15.224;2023-03-01T04:45:32;2.17;;;1.50;;
16159;SDS011;8185;57.818;15.224;2023-03-01T04:48:00;2.40;;;1.53;;
16159;SDS011;8185;57.818;15.224;2023-03-01T04:50:28;2.50;;;1.53;;
16159;SDS011;8185;57.818;15.224;2023-03-01T04:52:55;1.90;;;1.70;;
16159;SDS011;8185;57.818;15.224;2023-03-01T04:55:25;1.80;;;1.50;;
16159;SDS011;8185;57.818;15.224;2023-03-01T04:57:52;2.93;;;1.70;;
16159;SDS011;8185;57.818;15.224;2023-03-01T05:00:22;2.47;;;1.70;;
16159;SDS011;8185;57.818;15.224;2023-03-01T05:02:50;1.40;;;1.30;;
16159;SDS011;8185;57.818;15.224;2023-03-01T05:05:20;1.97;;;1.40;;
16159;SDS011;8185;57.818;15.224;2023-03-01T05:07:51;1.70;;;1.50;;
16159;SDS011;8185;57.818;15.224;2023-03-01T05:10:19;2.87;;;1.60;;
16159;SDS011;8185;57.818;15.224;2023-03-01T05:12:46;3.23;;;0.90;;
16159;SDS011;8185;57.818;15.224;2023-03-01T05:15:13;1.63;;;1.10;;
16159;SDS011;8185;57.818;15.224;2023-03-01T05:17:42;2.30;;;1.30;;
16159;SDS011;8185;57.818;15.224;2023-03-01T05:20:10;1.67;;;1.07;;
16159;SDS011;8185;57.818;15.224;2023-03-01T05:22:37;1.57;;;1.10;;
16159;SDS011;8185;57.818;15.224;2023-03-01T05:25:05;1.30;;;1.00;;
16159;SDS011;8185;57.818;15.224;2023-03-01T05:27:33;1.30;;;1.10;;
16159;SDS011;8185;57.818;15.224;2023-03-01T05:30:01;2.57;;;1.10;;
16159;SDS011;8185;57.818;15.224;2023-03-01T05:32:39;2.17;;;1.00;;
16159;SDS011;8185;57.818;15.224;2023-03-01T05:35:09;3.73;;;2.70;;
16159;SDS011;8185;57.818;15.224;2023-03-01T05:37:40;2.60;;;2.10;;
16159;SDS011;8185;57.818;15.224;2023-03-01T05:40:09;2.70;;;1.77;;
16159;SDS011;8185;57.818;15.224;2023-03-01T05:42:43;1.70;;;1.60;;
16159;SDS011;8185;57.818;15.224;2023-03-01T05:45:11;2.13;;;1.40;;
16159;SDS011;8185;57.818;15.224;2023-03-01T05:47:39;2.03;;;1.20;;
16159;SDS011;8185;57.818;15.224;2023-03-01T05:50:11;2.80;;;1.60;;
16159;SDS011;8185;57.818;15.224;2023-03-01T05:52:43;1.80;;;1.43;;
16159;SDS011;8185;57.818;15.224;2023-03-01T05:55:10;1.40;;;1.23;;
16159;SDS011;8185;57.818;15.224;2023-03-01T05:57:38;1.73;;;0.77;;
16159;SDS011;8185;57.818;15.224;2023-03-01T06:00:05;2.00;;;1.50;;
16159;SDS011;8185;57.818;15.224;2023-03-01T06:02:33;1.50;;;1.40;;
16159;SDS011;8185;57.818;15.224;2023-03-01T06:05:01;2.90;;;1.80;;
16159;SDS011;8185;57.818;15.224;2023-03-01T06:07:30;3.27;;;1.47;;
16159;SDS011;8185;57.818;15.224;2023-03-01T06:09:57;1.70;;;1.60;;
16159;SDS011;8185;57.818;15.224;2023-03-01T06:12:25;2.27;;;1.47;;
16159;SDS011;8185;57.818;15.224;2023-03-01T06:14:52;1.90;;;1.67;;
16159;SDS011;8185;57.818;15.224;2023-03-01T06:17:19;2.50;;;1.77;;
16159;SDS011;8185;57.818;15.224;2023-03-01T06:19:46;3.43;;;2.60;;
16159;SDS011;8185;57.818;15.224;2023-03-01T06:22:13;2.83;;;2.10;;
16159;SDS011;8185;57.818;15.224;2023-03-01T06:24:42;3.67;;;3.37;;
16159;SDS011;8185;57.818;15.224;2023-03-01T06:27:09;3.57;;;3.10;;
16159;SDS011;8185;57.818;15.224;2023-03-01T06:29:36;3.60;;;2.83;;
16159;SDS011;8185;57.818;15.224;2023-03-01T06:32:03;5.93;;;5.00;;
16159;SDS011;8185;57.818;15.224;2023-03-01T06:34:31;4.80;;;4.40;;
16159;SDS011;8185;57.818;15.224;2023-03-01T06:36:58;3.00;;;2.70;;
16159;SDS011;8185;57.818;15.224;2023-03-01T06:39:30;2.20;;;2.00;;
16159;SDS011;8185;57.818;15.224;2023-03-01T06:41:59;2.83;;;1.63;;
16159;SDS011;8185;57.818;15.224;2023-03-01T06:44:26;2.30;;;1.60;;
16159;SDS011;8185;57.818;15.224;2023-03-01T06:46:55;3.63;;;2.43;;
16159;SDS011;8185;57.818;15.224;2023-03-01T06:49:22;2.10;;;1.70;;
16159;SDS011;8185;57.818;15.224;2023-03-01T06:51:49;1.57;;;1.47;;
16159;SDS011;8185;57.818;15.224;2023-03-01T06:54:16;1.57;;;1.43;;
16159;SDS011;8185;57.818;15.224;2023-03-01T06:56:46;2.00;;;1.60;;
16159;SDS011;8185;57.818;15.224;2023-03-01T06:59:15;1.77;;;1.67;;
16159;SDS011;8185;57.818;15.224;2023-03-01T07:01:42;1.77;;;1.60;;
16159;SDS011;8185;57.818;15.224;2023-03-01T07:04:09;1.90;;;1.60;;
16159;SDS011;8185;57.818;15.224;2023-03-01T07:06:37;1.83;;;1.73;;
16159;SDS011;8185;57.818;15.224;2023-03-01T07:09:04;1.97;;;1.60;;
16159;SDS011;8185;57.818;15.224;2023-03-01T07:11:32;1.73;;;1.60;;
16159;SDS011;8185;57.818;15.224;2023-03-01T07:13:59;2.33;;;1.53;;
16159;SDS011;8185;57.818;15.224;2023-03-01T07:16:28;1.63;;;1.50;;
16159;SDS011;8185;57.818;15.224;2023-03-01T07:18:55;1.90;;;1.50;;
16159;SDS011;8185;57.818;15.224;2023-03-01T07:21:22;2.33;;;1.47;;
16159;SDS011;8185;57.818;15.224;2023-03-01T07:23:49;1.93;;;1.30;;
16159;SDS011;8185;57.818;15.224;2023-03-01T07:26:17;1.30;;;1.10;;
16159;SDS011;8185;57.818;15.224;2023-03-01T07:28:44;1.40;;;1.30;;
16159;SDS011;8185;57.818;15.224;2023-03-01T07:31:11;2.43;;;1.60;;
16159;SDS011;8185;57.818;15.224;2023-03-01T07:33:40;1.20;;;1.10;;
16159;SDS011;8185;57.818;15.224;2023-03-01T07:36:08;2.63;;;1.40;;
16159;SDS011;8185;57.818;15.224;2023-03-01T07:38:35;2.60;;;1.43;;
16159;SDS011;8185;57.818;15.224;2023-03-01T07:41:03;2.80;;;1.37;;
16159;SDS011;8185;57.818;15.224;2023-03-01T07:43:31;1.83;;;1.20;;
16159;SDS011;8185;57.818;15.224;2023-03-01T07:45:58;1.10;;;1.00;;
16159;SDS011;8185;57.818;15.224;2023-03-01T07:48:26;3.33;;;1.20;;
16159;SDS011;8185;57.818;15.224;2023-03-01T07:50:55;1.40;;;1.10;;
16159;SDS011;8185;57.818;15.224;2023-03-01T07:53:25;1.37;;;1.27;;
16159;SDS011;8185;57.818;15.224;2023-03-01T07:56:00;1.87;;;0.97;;
16159;SDS011;8185;57.818;15.224;2023-03-01T07:58:28;1.63;;;0.90;;
16159;SDS011;8185;57.818;15.224;2023-03-01T08:00:55;1.50;;;1.20;;
16159;SDS011;8185;57.818;15.224;2023-03-01T08:03:22;3.73;;;1.10;;
16159;SDS011;8185;57.818;15.224;2023-03-01T08:05:49;1.27;;;1.10;;
16159;SDS011;8185;57.818;15.224;2023-03-01T08:08:18;1.10;;;1.00;;
16159;SDS011;8185;57.818;15.224;2023-03-01T08:10:45;1.70;;;0.90;;
16159;SDS011;8185;57.818;15.224;2023-03-01T08:13:12;2.33;;;1.03;;
16159;SDS011;8185;57.818;15.224;2023-03-01T08:15:39;1.30;;;1.20;;
16159;SDS011;8185;57.818;15.224;2023-03-01T08:18:07;2.00;;;1.10;;
16159;SDS011;8185;57.818;15.224;2023-03-01T08:20:34;1.37;;;1.07;;
16159;SDS011;8185;57.818;15.224;2023-03-01T08:23:01;1.70;;;1.13;;
16159;SDS011;8185;57.818;15.224;2023-03-01T08:25:30;1.83;;;1.10;;
16159;SDS011;8185;57.818;15.224;2023-03-01T08:27:57;1.50;;;1.00;;
16159;SDS011;8185;57.818;15.224;2023-03-01T08:30:24;2.20;;;1.27;;
16159;SDS011;8185;57.818;15.224;2023-03-01T08:32:51;3.70;;;1.10;;
16159;SDS011;8185;57.818;15.224;2023-03-01T08:35:19;0.73;;;0.70;;
16159;SDS011;8185;57.818;15.224;2023-03-01T08:37:47;1.07;;;0.97;;
16159;SDS011;8185;57.818;15.224;2023-03-01T08:40:14;1.83;;;1.17;;
16159;SDS011;8185;57.818;15.224;2023-03-01T08:42:43;0.97;;;0.87;;
16159;SDS011;8185;57.818;15.224;2023-03-01T08:45:11;0.70;;;0.67;;
16159;SDS011;8185;57.818;15.224;2023-03-01T08:47:39;1.00;;;0.77;;
16159;SDS011;8185;57.818;15.224;2023-03-01T08:50:06;1.40;;;0.70;;
16159;SDS011;8185;57.818;15.224;2023-03-01T08:52:34;1.07;;;0.83;;
16159;SDS011;8185;57.818;15.224;2023-03-01T08:55:02;2.07;;;0.80;;
16159;SDS011;8185;57.818;15.224;2023-03-01T08:57:29;0.60;;;0.60;;
16159;SDS011;8185;57.818;15.224;2023-03-01T08:59:58;0.70;;;0.60;;
16159;SDS011;8185;57.818;15.224;2023-03-01T09:02:26;1.67;;;0.63;;
16159;SDS011;8185;57.818;15.224;2023-03-01T09:04:53;0.90;;;0.87;;
16159;SDS011;8185;57.818;15.224;2023-03-01T09:07:20;1.63;;;0.50;;
16159;SDS011;8185;57.818;15.224;2023-03-01T09:09:53;1.03;;;0.63;;
16159;SDS011;8185;57.818;15.224;2023-03-01T09:12:21;1.33;;;0.57;;
16159;SDS011;8185;57.818;15.224;2023-03-01T09:14:49;0.87;;;0.50;;
16159;SDS011;8185;57.818;15.224;2023-03-01T09:17:18;2.03;;;0.50;;
16159;SDS011;8185;57.818;15.224;2023-03-01T09:19:47;1.90;;;0.70;;
16159;SDS011;8185;57.818;15.224;2023-03-01T09:22:14;0.57;;;0.40;;
16159;SDS011;8185;57.818;15.224;2023-03-01T09:24:42;0.30;;;0.30;;
16159;SDS011;8185;57.818;15.224;2023-03-01T09:27:09;1.13;;;0.50;;
16159;SDS011;8185;57.818;15.224;2023-03-01T09:29:38;0.93;;;0.40;;
16159;SDS011;8185;57.818;15.224;2023-03-01T09:32:05;1.37;;;0.40;;
16159;SDS011;8185;57.818;15.224;2023-03-01T09:34:34;0.70;;;0.30;;
16159;SDS011;8185;57.818;15.224;2023-03-01T09:37:22;1.37;;;0.67;;
16159;SDS011;8185;57.818;15.224;2023-03-01T09:39:49;0.90;;;0.40;;
16159;SDS011;8185;57.818;15.224;2023-03-01T09:42:16;1.27;;;0.50;;
16159;SDS011;8185;57.818;15.224;2023-03-01T09:44:45;1.43;;;0.40;;
16159;SDS011;8185;57.818;15.224;2023-03-01T09:47:17;0.83;;;0.40;;
16159;SDS011;8185;57.818;15.224;2023-03-01T09:49:51;0.67;;;0.37;;
16159;SDS011;8185;57.818;15.224;2023-03-01T09:52:26;0.57;;;0.40;;
16159;SDS011;8185;57.818;15.224;2023-03-01T09:55:00;0.53;;;0.30;;
16159;SDS011;8185;57.818;15.224;2023-03-01T09:57:33;1.13;;;0.40;;
16159;SDS011;8185;57.818;15.224;2023-03-01T10:03:06;0.63;;;0.33;;
16159;SDS011;8185;57.818;15.224;2023-03-01T10:05:43;0.67;;;0.30;;
16159;SDS011;8185;57.818;15.224;2023-03-01T10:08:27;0.60;;;0.20;;
16159;SDS011;8185;57.818;15.224;2023-03-01T10:11:01;1.63;;;0.40;;
16159;SDS011;8185;57.818;15.224;2023-03-01T10:13:34;1.20;;;0.47;;
16159;SDS011;8185;57.818;15.224;2023-03-01T10:16:10;0.60;;;0.30;;
16159;SDS011;8185;57.818;15.224;2023-03-01T10:18:41;1.27;;;0.50;;
16159;SDS011;8185;57.818;15.224;2023-03-01T10:21:16;1.33;;;0.30;;
16159;SDS011;8185;57.818;15.224;2023-03-01T10:23:45;0.27;;;0.20;;
16159;SDS011;8185;57.818;15.224;2023-03-01T10:26:22;0.93;;;0.20;;
16159;SDS011;8185;57.818;15.224;2023-03-01T10:29:04;1.03;;;0.47;;
16159;SDS011;8185;57.818;15.224;2023-03-01T10:31:38;0.30;;;0.20;;
16159;SDS011;8185;57.818;15.224;2023-03-01T10:34:10;0.80;;;0.20;;
16159;SDS011;8185;57.818;15.224;2023-03-01T10:36:41;0.30;;;0.20;;
16159;SDS011;8185;57.818;15.224;2023-03-01T10:39:14;0.50;;;0.20;;
16159;SDS011;8185;57.818;15.224;2023-03-01T10:41:57;1.40;;;0.30;;
16159;SDS011;8185;57.818;15.224;2023-03-01T10:44:35;0.50;;;0.30;;
16159;SDS011;8185;57.818;15.224;2023-03-01T10:47:12;1.07;;;0.43;;
16159;SDS011;8185;57.818;15.224;2023-03-01T10:49:51;0.90;;;0.30;;
16159;SDS011;8185;57.818;15.224;2023-03-01T10:52:25;0.40;;;0.27;;
16159;SDS011;8185;57.818;15.224;2023-03-01T10:54:55;0.47;;;0.20;;
16159;SDS011;8185;57.818;15.224;2023-03-01T10:57:28;1.10;;;0.30;;
16159;SDS011;8185;57.818;15.224;2023-03-01T11:02:49;0.30;;;0.20;;
16159;SDS011;8185;57.818;15.224;2023-03-01T11:05:28;0.67;;;0.30;;
16159;SDS011;8185;57.818;15.224;2023-03-01T11:08:01;0.70;;;0.30;;
16159;SDS011;8185;57.818;15.224;2023-03-01T11:10:30;0.90;;;0.20;;
16159;SDS011;8185;57.818;15.224;2023-03-01T11:13:06;0.63;;;0.30;;
16159;SDS011;8185;57.818;15.224;2023-03-01T11:15:35;0.23;;;0.20;;
16159;SDS011;8185;57.818;15.224;2023-03-01T11:18:02;0.53;;;0.20;;
16159;SDS011;8185;57.818;15.224;2023-03-01T11:20:30;1.90;;;0.30;;
16159;SDS011;8185;57.818;15.224;2023-03-01T11:23:03;0.33;;;0.20;;
16159;SDS011;8185;57.818;15.224;2023-03-01T11:25:35;0.43;;;0.30;;
16159;SDS011;8185;57.818;15.224;2023-03-01T11:28:05;0.70;;;0.33;;
16159;SDS011;8185;57.818;15.224;2023-03-01T11:30:35;0.30;;;0.20;;
16159;SDS011;8185;57.818;15.224;2023-03-01T11:33:13;0.40;;;0.20;;
16159;SDS011;8185;57.818;15.224;2023-03-01T11:35:46;0.80;;;0.37;;
16159;SDS011;8185;57.818;15.224;2023-03-01T11:38:23;0.90;;;0.37;;
16159;SDS011;8185;57.818;15.224;2023-03-01T11:40:53;0.80;;;0.50;;
16159;SDS011;8185;57.818;15.224;2023-03-01T11:43:26;1.63;;;0.30;;
16159;SDS011;8185;57.818;15.224;2023-03-01T11:46:11;0.47;;;0.30;;
16159;SDS011;8185;57.818;15.224;2023-03-01T11:49:09;1.73;;;0.30;;
16159;SDS011;8185;57.818;15.224;2023-03-01T11:52:00;0.83;;;0.33;;
16159;SDS011;8185;57.818;15.224;2023-03-01T11:54:41;0.73;;;0.30;;
16159;SDS011;8185;57.818;15.224;2023-03-01T11:57:19;1.07;;;0.30;;
16159;SDS011;8185;57.818;15.224;2023-03-01T12:00:13;0.50;;;0.30;;
16159;SDS011;8185;57.818;15.224;2023-03-01T12:02:59;0.30;;;0.23;;
16159;SDS011;8185;57.818;15.224;2023-03-01T12:05:50;1.07;;;0.67;;
16159;SDS011;8185;57.818;15.224;2023-03-01T12:08:50;0.87;;;0.30;;
16159;SDS011;8185;57.818;15.224;2023-03-01T12:11:28;0.27;;;0.20;;
16159;SDS011;8185;57.818;15.224;2023-03-01T12:14:10;1.43;;;0.20;;
16159;SDS011;8185;57.818;15.224;2023-03-01T12:16:55;0.80;;;0.40;;
16159;SDS011;8185;57.818;15.224;2023-03-01T12:19:48;0.30;;;0.20;;
16159;SDS011;8185;57.818;15.224;2023-03-01T12:22:30;1.00;;;0.40;;
16159;SDS011;8185;57.818;15.224;2023-03-01T12:25:10;1.13;;;0.30;;
16159;SDS011;8185;57.818;15.224;2023-03-01T12:28:00;0.50;;;0.20;;
16159;SDS011;8185;57.818;15.224;2023-03-01T12:30:57;0.50;;;0.30;;
16159;SDS011;8185;57.818;15.224;2023-03-01T12:33:38;1.23;;;0.40;;
16159;SDS011;8185;57.818;15.224;2023-03-01T12:39:04;1.07;;;0.30;;
16159;SDS011;8185;57.818;15.224;2023-03-01T12:41:47;2.27;;;0.30;;
16159;SDS011;8185;57.818;15.224;2023-03-01T12:44:29;0.30;;;0.20;;
16159;SDS011;8185;57.818;15.224;2023-03-01T12:47:07;0.40;;;0.20;;
16159;SDS011;8185;57.818;15.224;2023-03-01T12:49:47;0.40;;;0.20;;
16159;SDS011;8185;57.818;15.224;2023-03-01T12:52:19;0.70;;;0.30;;
16159;SDS011;8185;57.818;15.224;2023-03-01T12:57:36;1.80;;;0.30;;
16159;SDS011;8185;57.818;15.224;2023-03-01T13:00:15;0.30;;;0.20;;
16159;SDS011;8185;57.818;15.224;2023-03-01T13:02:52;0.53;;;0.30;;
16159;SDS011;8185;57.818;15.224;2023-03-01T13:05:31;0.90;;;0.30;;
16159;SDS011;8185;57.818;15.224;2023-03-01T13:08:07;0.20;;;0.20;;
16159;SDS011;8185;57.818;15.224;2023-03-01T13:10:42;0.20;;;0.20;;
16159;SDS011;8185;57.818;15.224;2023-03-01T13:13:15;1.10;;;0.30;;
16159;SDS011;8185;57.818;15.224;2023-03-01T13:15:47;0.77;;;0.20;;
16159;SDS011;8185;57.818;15.224;2023-03-01T13:21:07;0.60;;;0.20;;
16159;SDS011;8185;57.818;15.224;2023-03-01T13:23:35;1.37;;;0.40;;
16159;SDS011;8185;57.818;15.224;2023-03-01T13:26:08;2.53;;;0.40;;
16159;SDS011;8185;57.818;15.224;2023-03-01T13:28:47;1.00;;;0.30;;
16159;SDS011;8185;57.818;15.224;2023-03-01T13:34:49;0.50;;;0.30;;
16159;SDS011;8185;57.818;15.224;2023-03-01T13:37:31;0.93;;;0.20;;
16159;SDS011;8185;57.818;15.224;2023-03-01T13:40:05;0.70;;;0.30;;
16159;SDS011;8185;57.818;15.224;2023-03-01T13:42:50;0.40;;;0.20;;
16159;SDS011;8185;57.818;15.224;2023-03-01T13:45:23;0.60;;;0.20;;
16159;SDS011;8185;57.818;15.224;2023-03-01T13:48:00;0.20;;;0.20;;
16159;SDS011;8185;57.818;15.224;2023-03-01T13:50:33;0.50;;;0.30;;
16159;SDS011;8185;57.818;15.224;2023-03-01T13:53:04;2.13;;;0.30;;
16159;SDS011;8185;57.818;15.224;2023-03-01T13:55:37;0.20;;;0.20;;
16159;SDS011;8185;57.818;15.224;2023-03-01T13:58:15;0.40;;;0.33;;
16159;SDS011;8185;57.818;15.224;2023-03-01T14:00:47;0.40;;;0.30;;
16159;SDS011;8185;57.818;15.224;2023-03-01T14:03:21;0.50;;;0.30;;
16159;SDS011;8185;57.818;15.224;2023-03-01T14:06:01;0.20;;;0.20;;
16159;SDS011;8185;57.818;15.224;2023-03-01T14:08:33;0.50;;;0.30;;
16159;SDS011;8185;57.818;15.224;2023-03-01T14:11:22;0.50;;;0.30;;
16159;SDS011;8185;57.818;15.224;2023-03-01T14:16:59;0.30;;;0.20;;
16159;SDS011;8185;57.818;15.224;2023-03-01T14:19:37;0.83;;;0.30;;
16159;SDS011;8185;57.818;15.224;2023-03-01T14:22:13;0.37;;;0.20;;
16159;SDS011;8185;57.818;15.224;2023-03-01T14:24:46;0.33;;;0.20;;
16159;SDS011;8185;57.818;15.224;2023-03-01T14:27:15;0.47;;;0.30;;
16159;SDS011;8185;57.818;15.224;2023-03-01T14:29:43;0.70;;;0.30;;
16159;SDS011;8185;57.818;15.224;2023-03-01T14:32:20;0.30;;;0.30;;
16159;SDS011;8185;57.818;15.224;2023-03-01T14:34:50;0.30;;;0.20;;
16159;SDS011;8185;57.818;15.224;2023-03-01T14:37:21;0.20;;;0.10;;
16159;SDS011;8185;57.818;15.224;2023-03-01T14:39:51;0.77;;;0.30;;
16159;SDS011;8185;57.818;15.224;2023-03-01T14:42:19;0.27;;;0.17;;
16159;SDS011;8185;57.818;15.224;2023-03-01T14:44:48;0.57;;;0.10;;
16159;SDS011;8185;57.818;15.224;2023-03-01T14:47:22;0.80;;;0.23;;
16159;SDS011;8185;57.818;15.224;2023-03-01T14:49:56;0.37;;;0.10;;
16159;SDS011;8185;57.818;15.224;2023-03-01T14:52:27;0.43;;;0.20;;
16159;SDS011;8185;57.818;15.224;2023-03-01T14:55:01;0.30;;;0.20;;
16159;SDS011;8185;57.818;15.224;2023-03-01T14:57:30;0.53;;;0.20;;
16159;SDS011;8185;57.818;15.224;2023-03-01T14:59:58;0.30;;;0.20;;
16159;SDS011;8185;57.818;15.224;2023-03-01T15:02:30;0.20;;;0.10;;
16159;SDS011;8185;57.818;15.224;2023-03-01T15:05:00;0.67;;;0.10;;
16159;SDS011;8185;57.818;15.224;2023-03-01T15:07:31;0.20;;;0.20;;
16159;SDS011;8185;57.818;15.224;2023-03-01T15:10:00;0.37;;;0.23;;
16159;SDS011;8185;57.818;15.224;2023-03-01T15:12:36;0.63;;;0.27;;
16159;SDS011;8185;57.818;15.224;2023-03-01T15:15:22;0.40;;;0.27;;
16159;SDS011;8185;57.818;15.224;2023-03-01T15:18:00;0.50;;;0.20;;
16159;SDS011;8185;57.818;15.224;2023-03-01T15:20:29;0.40;;;0.20;;
16159;SDS011;8185;57.818;15.224;2023-03-01T15:23:02;0.57;;;0.20;;
16159;SDS011;8185;57.818;15.224;2023-03-01T15:25:30;0.30;;;0.20;;
16159;SDS011;8185;57.818;15.224;2023-03-01T15:28:00;0.60;;;0.20;;
16159;SDS011;8185;57.818;15.224;2023-03-01T15:30:29;0.53;;;0.20;;
16159;SDS011;8185;57.818;15.224;2023-03-01T15:35:47;0.70;;;0.30;;
16159;SDS011;8185;57.818;15.224;2023-03-01T15:38:24;0.30;;;0.20;;